This is the latest recevied weather packets stored in our database for station/object KC5AV. If no packets are shown the sender has not sent any weather packets the latest 10 day(s).
| Time | Temp. | Humidity | Pressure | Rain* | Wind** | Luminosity | Snow |
|---|---|---|---|---|---|---|---|
| 1778003068 | 26.67° C | 71% | 1008.1 hPa | 0 mm | - | 374 W/m² | - |
| 1778002764 | 26.67° C | 74% | 1008.1 hPa | 0 mm | - | 449 W/m² | - |
| 1778002460 | 26.11° C | 74% | 1008.1 hPa | 0 mm | - | 310 W/m² | - |
| 1778002158 | 26.67° C | 73% | 1008.4 hPa | 0 mm | - | 260 W/m² | - |
| 1778001855 | 26.11° C | 74% | 1008.2 hPa | 0 mm | - | 448 W/m² | - |
| 1778001555 | 26.11° C | 75% | 1008.1 hPa | 0 mm | - | 355 W/m² | - |
| 1778001252 | 26.11° C | 75% | 1008.1 hPa | 0 mm | - | 409 W/m² | - |
| 1778000948 | 25.56° C | 75% | 1008.1 hPa | 0 mm | - | 327 W/m² | - |
| 1778000645 | 25.56° C | 76% | 1008.4 hPa | 0 mm | - | 323 W/m² | - |
| 1778000341 | 25.56° C | 77% | 1008.5 hPa | 0 mm | - | 330 W/m² | - |
| 1778000036 | 25.56° C | 76% | 1008.5 hPa | 0 mm | - | 493 W/m² | - |
| 1777999732 | 25.56° C | 76% | 1008.4 hPa | 0 mm | - | 388 W/m² | - |
| 1777999429 | 25° C | 77% | 1008.6 hPa | 0 mm | - | 446 W/m² | - |
| 1777999127 | 24.44° C | 80% | 1008.5 hPa | 0 mm | - | 435 W/m² | - |
| 1777998826 | 24.44° C | 81% | 1008.6 hPa | 0 mm | - | 319 W/m² | - |
| 1777998524 | 23.89° C | 81% | 1008.4 hPa | 0 mm | - | 248 W/m² | - |
| 1777998220 | 23.89° C | 82% | 1008.8 hPa | 0 mm | - | 251 W/m² | - |
| 1777997917 | 23.33° C | 83% | 1008.4 hPa | 0 mm | - | 331 W/m² | - |
| 1777997614 | 23.33° C | 83% | 1008.7 hPa | 0 mm | - | 174 W/m² | - |
| 1777997311 | 22.78° C | 84% | 1008.7 hPa | 0 mm | - | 164 W/m² | - |
| 1777997010 | 22.78° C | 83% | 1008.8 hPa | 0 mm | - | 136 W/m² | - |
| 1777996706 | 22.78° C | 85% | 1008.6 hPa | 0 mm | - | 183 W/m² | - |
| 1777996401 | 22.78° C | 85% | 1008.8 hPa | 0 mm | - | 150 W/m² | - |
| 1777996098 | 22.78° C | 84% | 1008.9 hPa | 0 mm | - | 113 W/m² | - |
| 1777995794 | 22.78° C | 84% | 1008.9 hPa | 0 mm | - | 98 W/m² | - |
* Rain latest hour (hover to see other rain measurements)
** Current wind speed in m/s (hover to see current wind gust speed)